createdAt,value
2022-10-31T00:01:30.236Z,21.87
2022-10-31T00:03:57.552Z,21.17
2022-10-31T00:06:25.038Z,20.13
2022-10-31T00:08:58.165Z,21.53
2022-10-31T00:11:26.298Z,21.00
2022-10-31T00:13:54.438Z,19.73
2022-10-31T00:16:23.950Z,21.63
2022-10-31T00:18:53.975Z,20.43
2022-10-31T00:21:22.205Z,21.27
2022-10-31T00:23:50.064Z,22.20
2022-10-31T00:26:17.918Z,21.57
2022-10-31T00:28:45.677Z,21.10
2022-10-31T00:31:14.645Z,19.00
2022-10-31T00:33:42.890Z,21.33
2022-10-31T00:36:14.412Z,21.40
2022-10-31T00:38:42.202Z,20.80
2022-10-31T00:41:10.266Z,21.30
2022-10-31T00:43:37.685Z,19.53
2022-10-31T00:46:05.077Z,20.77
2022-10-31T00:48:32.686Z,20.20
2022-10-31T00:51:00.070Z,21.63
2022-10-31T00:53:27.706Z,21.60
2022-10-31T00:55:55.000Z,20.93
2022-10-31T00:58:22.338Z,21.23
2022-10-31T01:00:56.467Z,20.73
2022-10-31T01:03:30.831Z,19.97
2022-10-31T01:06:02.392Z,20.70
2022-10-31T01:08:30.592Z,18.00
2022-10-31T01:11:30.720Z,15.23
2022-10-31T01:13:58.606Z,17.10
2022-10-31T01:16:28.091Z,16.30
2022-10-31T01:18:55.483Z,16.73
2022-10-31T01:21:25.478Z,17.77
2022-10-31T01:23:55.163Z,19.07
2022-10-31T01:26:27.680Z,19.17
2022-10-31T01:28:57.476Z,17.93
2022-10-31T01:31:30.792Z,18.90
2022-10-31T01:33:58.525Z,19.00
2022-10-31T01:36:30.181Z,18.43
2022-10-31T01:39:00.329Z,19.63
2022-10-31T01:41:30.813Z,17.47
2022-10-31T01:44:01.041Z,16.10
2022-10-31T01:46:37.635Z,17.77
2022-10-31T01:49:10.722Z,18.30
2022-10-31T01:51:43.323Z,17.23
2022-10-31T01:54:16.918Z,17.10
2022-10-31T01:56:49.652Z,17.57
2022-10-31T01:59:20.155Z,17.33
2022-10-31T02:01:48.618Z,16.60
2022-10-31T02:04:17.182Z,16.20
2022-10-31T02:06:56.799Z,18.03
2022-10-31T02:09:25.931Z,17.13
2022-10-31T02:11:55.175Z,16.37
2022-10-31T02:14:28.215Z,16.60
2022-10-31T02:16:56.388Z,19.00
2022-10-31T02:19:38.744Z,15.57
2022-10-31T02:22:25.595Z,15.97
2022-10-31T02:25:23.728Z,19.50
2022-10-31T02:28:15.590Z,18.33
2022-10-31T02:31:07.170Z,17.23
2022-10-31T02:33:48.221Z,17.50
2022-10-31T02:36:40.717Z,17.07
2022-10-31T02:39:44.634Z,17.37
2022-10-31T02:42:19.458Z,16.70
2022-10-31T02:44:59.084Z,17.20
2022-10-31T02:47:30.726Z,17.63
2022-10-31T02:50:13.166Z,17.93
2022-10-31T02:52:41.306Z,18.63
2022-10-31T02:55:35.027Z,18.67
2022-10-31T02:58:15.005Z,17.53
2022-10-31T03:01:21.257Z,18.30
2022-10-31T03:04:00.738Z,21.80
2022-10-31T03:06:33.876Z,21.00
2022-10-31T03:09:06.976Z,22.13
2022-10-31T03:12:00.542Z,21.10
2022-10-31T03:15:04.604Z,20.53
2022-10-31T03:17:57.505Z,19.47
2022-10-31T03:20:36.588Z,19.00
2022-10-31T03:23:08.067Z,18.57
2022-10-31T03:25:38.486Z,17.60
2022-10-31T03:28:08.616Z,21.43
2022-10-31T03:30:39.303Z,23.20
2022-10-31T03:33:11.105Z,22.53
2022-10-31T03:35:40.928Z,21.10
2022-10-31T03:38:09.080Z,21.50
2022-10-31T03:40:41.047Z,23.80
2022-10-31T03:43:15.563Z,22.00
2022-10-31T03:45:46.800Z,24.00
2022-10-31T03:48:16.233Z,22.80
2022-10-31T03:50:56.132Z,23.97
2022-10-31T03:53:42.327Z,22.03
2022-10-31T03:56:13.564Z,23.67
2022-10-31T03:58:50.207Z,21.40
2022-10-31T04:01:20.692Z,20.37
2022-10-31T04:03:49.795Z,26.50
2022-10-31T04:06:19.798Z,25.83
2022-10-31T04:08:53.113Z,26.23
2022-10-31T04:11:25.424Z,24.73
2022-10-31T04:13:54.563Z,23.33
2022-10-31T04:16:23.169Z,25.07
2022-10-31T04:18:51.390Z,24.03
2022-10-31T04:21:18.806Z,23.63
2022-10-31T04:23:46.153Z,22.67
2022-10-31T04:26:14.791Z,22.63
2022-10-31T04:28:42.208Z,23.23
2022-10-31T04:31:12.993Z,22.07
2022-10-31T04:33:40.515Z,19.47
2022-10-31T04:36:08.382Z,20.70
2022-10-31T04:38:36.039Z,21.77
2022-10-31T04:41:03.351Z,17.80
2022-10-31T04:43:31.185Z,21.37
2022-10-31T04:45:58.684Z,24.10
2022-10-31T04:48:26.968Z,25.43
2022-10-31T04:50:54.425Z,26.00
2022-10-31T04:53:21.956Z,24.27
2022-10-31T04:55:49.525Z,25.10
2022-10-31T05:00:54.454Z,24.27
2022-10-31T05:03:22.538Z,24.33
2022-10-31T05:05:49.819Z,24.20
2022-10-31T05:08:17.501Z,22.37
2022-10-31T05:10:44.812Z,20.30
2022-10-31T05:13:12.813Z,22.77
2022-10-31T05:15:40.268Z,25.80
2022-10-31T05:18:07.554Z,24.30
2022-10-31T05:20:35.079Z,22.30
2022-10-31T05:23:02.384Z,22.27
2022-10-31T05:25:31.235Z,24.23
2022-10-31T05:27:59.380Z,22.83
2022-10-31T05:30:29.850Z,25.17
2022-10-31T05:32:58.397Z,23.90
2022-10-31T05:35:31.347Z,25.50
2022-10-31T05:38:00.346Z,24.90
2022-10-31T05:40:28.870Z,25.37
2022-10-31T05:42:58.070Z,23.70
2022-10-31T05:45:26.014Z,24.80
2022-10-31T05:47:59.349Z,25.13
2022-10-31T05:50:29.674Z,25.87
2022-10-31T05:53:02.256Z,26.00
2022-10-31T05:55:30.723Z,27.93
2022-10-31T05:57:59.007Z,27.63
2022-10-31T06:00:27.590Z,27.70
2022-10-31T06:03:06.728Z,26.87
2022-10-31T06:05:34.765Z,25.77
2022-10-31T06:08:02.602Z,25.87
2022-10-31T06:10:30.585Z,25.73
2022-10-31T06:12:57.931Z,27.17
2022-10-31T06:15:25.681Z,24.60
2022-10-31T06:18:04.109Z,25.70
2022-10-31T06:20:32.280Z,25.83
2022-10-31T06:23:00.105Z,26.70
2022-10-31T06:25:28.085Z,47.97
2022-10-31T06:27:55.742Z,90.63
2022-10-31T06:30:23.160Z,96.10
2022-10-31T06:32:52.353Z,84.57
2022-10-31T06:35:19.778Z,58.27
2022-10-31T06:37:57.193Z,37.50
2022-10-31T06:40:24.888Z,30.47
2022-10-31T06:43:02.095Z,27.03
2022-10-31T06:45:29.698Z,25.43
2022-10-31T06:50:45.481Z,26.13
2022-10-31T06:53:14.520Z,27.10
2022-10-31T06:55:42.683Z,31.63
2022-10-31T06:58:11.345Z,36.77
2022-10-31T07:00:38.946Z,26.87
2022-10-31T07:03:09.129Z,27.00
2022-10-31T07:05:36.446Z,25.73
2022-10-31T07:08:08.030Z,24.13
2022-10-31T07:10:40.115Z,22.47
2022-10-31T07:13:13.578Z,23.80
2022-10-31T07:15:42.334Z,25.07
2022-10-31T07:18:12.988Z,25.90
2022-10-31T07:20:40.326Z,24.83
2022-10-31T07:23:07.701Z,21.83
2022-10-31T07:25:35.011Z,31.53
2022-10-31T07:28:02.850Z,20.73
2022-10-31T07:30:30.391Z,17.37
2022-10-31T07:32:57.781Z,20.13
2022-10-31T07:35:27.262Z,27.07
2022-10-31T07:37:55.888Z,31.83
2022-10-31T07:40:24.367Z,30.27
2022-10-31T07:42:53.563Z,25.90
2022-10-31T07:45:22.159Z,21.33
2022-10-31T07:47:54.049Z,19.77
2022-10-31T07:50:24.011Z,15.97
2022-10-31T07:53:06.350Z,15.93
2022-10-31T07:55:34.457Z,15.63
2022-10-31T07:58:16.636Z,16.87
2022-10-31T08:00:46.223Z,15.17
2022-10-31T08:03:16.090Z,15.03
2022-10-31T08:05:43.484Z,15.03
2022-10-31T08:08:11.390Z,15.27
2022-10-31T08:10:39.265Z,15.17
2022-10-31T08:13:09.460Z,14.03
2022-10-31T08:15:39.489Z,13.87
2022-10-31T08:18:08.415Z,18.90
2022-10-31T08:20:35.926Z,13.90
2022-10-31T08:23:05.334Z,12.37
2022-10-31T08:25:38.234Z,12.33
2022-10-31T08:28:07.438Z,11.13
2022-10-31T08:30:36.953Z,11.60
2022-10-31T08:33:15.896Z,14.47
2022-10-31T08:35:43.748Z,12.53
2022-10-31T08:38:13.173Z,11.97
2022-10-31T08:40:41.340Z,10.47
2022-10-31T08:43:16.490Z,10.70
2022-10-31T08:45:45.578Z,9.47
2022-10-31T08:48:15.958Z,9.45
2022-10-31T08:50:44.866Z,9.85
2022-10-31T08:53:20.154Z,9.50
2022-10-31T08:55:48.296Z,8.13
2022-10-31T08:58:18.108Z,8.02
2022-10-31T09:00:47.189Z,8.23
2022-10-31T09:03:17.394Z,7.82
2022-10-31T09:05:45.147Z,7.70
2022-10-31T09:08:16.227Z,6.00
2022-10-31T09:10:45.573Z,5.43
2022-10-31T09:13:19.028Z,4.50
2022-10-31T09:15:49.121Z,5.80
2022-10-31T09:18:18.659Z,6.13
2022-10-31T09:20:47.769Z,5.72
2022-10-31T09:23:18.175Z,4.60
2022-10-31T09:25:50.463Z,5.15
2022-10-31T09:28:20.784Z,4.68
2022-10-31T09:30:54.908Z,4.32
2022-10-31T09:33:24.013Z,3.80
2022-10-31T09:35:51.621Z,3.47
2022-10-31T09:38:21.480Z,3.90
2022-10-31T09:40:58.641Z,3.30
2022-10-31T09:43:49.750Z,3.10
2022-10-31T09:46:17.092Z,3.42
2022-10-31T09:49:14.945Z,2.70
2022-10-31T09:51:51.930Z,3.22
2022-10-31T09:54:36.823Z,2.88
2022-10-31T09:57:05.199Z,3.33
2022-10-31T09:59:36.436Z,3.15
2022-10-31T10:02:12.680Z,3.50
2022-10-31T10:05:00.025Z,2.53
2022-10-31T10:08:06.909Z,2.85
2022-10-31T10:10:58.089Z,3.47
2022-10-31T10:13:41.139Z,4.50
2022-10-31T10:16:34.612Z,3.03
2022-10-31T10:19:16.950Z,3.17
2022-10-31T10:22:21.243Z,3.40
2022-10-31T10:25:03.173Z,3.10
2022-10-31T10:28:03.502Z,3.17
2022-10-31T10:30:41.596Z,3.70
2022-10-31T10:33:15.932Z,3.00
2022-10-31T10:36:05.034Z,2.95
2022-10-31T10:38:40.479Z,3.20
2022-10-31T10:41:15.686Z,2.97
2022-10-31T10:43:43.091Z,3.70
2022-10-31T10:46:43.866Z,3.33
2022-10-31T10:49:21.006Z,3.78
2022-10-31T10:52:19.386Z,3.08
2022-10-31T10:55:01.835Z,3.22
2022-10-31T10:57:51.699Z,4.00
2022-10-31T11:00:28.870Z,3.42
2022-10-31T11:02:57.536Z,3.60
2022-10-31T11:05:38.455Z,3.72
2022-10-31T11:08:06.627Z,3.92
2022-10-31T11:10:34.956Z,3.78
2022-10-31T11:13:20.693Z,3.30
2022-10-31T11:15:54.346Z,3.72
2022-10-31T11:20:59.262Z,3.63
2022-10-31T11:23:29.262Z,5.30
2022-10-31T11:26:01.309Z,4.30
2022-10-31T11:28:36.793Z,4.43
2022-10-31T11:31:15.294Z,4.45
2022-10-31T11:33:54.432Z,3.95
2022-10-31T11:36:27.499Z,5.38
2022-10-31T11:38:55.670Z,5.50
2022-10-31T11:41:39.755Z,4.18
2022-10-31T11:44:28.598Z,7.75
2022-10-31T11:47:04.467Z,8.48
2022-10-31T11:49:44.137Z,4.40
2022-10-31T11:52:27.222Z,3.42
2022-10-31T11:55:03.701Z,3.47
2022-10-31T11:57:44.721Z,3.88
2022-10-31T12:00:31.993Z,3.30
2022-10-31T12:03:17.975Z,3.30
2022-10-31T12:05:48.943Z,3.60
2022-10-31T12:08:16.421Z,3.63
2022-10-31T12:11:00.724Z,3.15
2022-10-31T12:14:03.535Z,3.92
2022-10-31T12:16:43.898Z,3.40
2022-10-31T12:19:32.756Z,3.90
2022-10-31T12:22:25.814Z,4.50
2022-10-31T12:25:02.769Z,7.18
2022-10-31T12:27:55.055Z,5.53
2022-10-31T12:30:31.501Z,5.47
2022-10-31T12:33:16.776Z,5.47
2022-10-31T12:36:31.676Z,3.60
2022-10-31T12:39:40.262Z,3.30
2022-10-31T12:42:45.625Z,3.35
2022-10-31T12:45:23.823Z,3.50
2022-10-31T12:48:20.663Z,3.25
2022-10-31T12:51:09.830Z,3.72
2022-10-31T12:54:18.296Z,3.38
2022-10-31T12:57:25.240Z,3.22
2022-10-31T13:00:02.969Z,3.33
2022-10-31T13:02:43.920Z,3.22
2022-10-31T13:05:38.832Z,4.18
2022-10-31T13:08:14.072Z,3.45
2022-10-31T13:11:19.680Z,3.75
2022-10-31T13:14:14.255Z,2.88
2022-10-31T13:16:51.175Z,3.92
2022-10-31T13:19:29.185Z,3.10
2022-10-31T13:22:06.392Z,3.10
2022-10-31T13:24:59.153Z,3.25
2022-10-31T13:27:32.281Z,3.13
2022-10-31T13:30:14.832Z,3.38
2022-10-31T13:33:21.557Z,3.50
2022-10-31T13:35:52.672Z,3.25
2022-10-31T13:38:22.908Z,4.15
2022-10-31T13:41:01.808Z,3.40
2022-10-31T13:43:29.115Z,4.25
2022-10-31T13:45:57.128Z,5.70
2022-10-31T13:48:35.387Z,5.70
2022-10-31T13:51:09.057Z,4.22
2022-10-31T13:53:38.310Z,3.58
2022-10-31T13:56:24.852Z,3.50
2022-10-31T13:59:05.862Z,3.50
2022-10-31T14:01:34.759Z,3.33
2022-10-31T14:04:25.283Z,3.13
2022-10-31T14:07:06.112Z,3.55
2022-10-31T14:10:07.472Z,4.78
2022-10-31T14:12:44.161Z,4.32
2022-10-31T14:15:17.556Z,4.40
2022-10-31T14:17:49.603Z,4.85
2022-10-31T14:20:16.891Z,4.45
2022-10-31T14:22:44.401Z,9.40
2022-10-31T14:25:31.791Z,15.40
2022-10-31T14:28:00.719Z,20.52
2022-10-31T14:30:29.918Z,11.52
2022-10-31T14:33:01.853Z,11.73
2022-10-31T14:35:59.939Z,11.38
2022-10-31T14:38:48.316Z,12.90
2022-10-31T14:41:30.707Z,11.68
2022-10-31T14:44:41.295Z,11.68
2022-10-31T14:47:33.886Z,10.55
2022-10-31T14:50:42.329Z,11.15
2022-10-31T14:53:24.954Z,10.45
2022-10-31T14:55:55.749Z,9.43
2022-10-31T15:01:09.764Z,8.70
2022-10-31T15:03:44.724Z,9.68
2022-10-31T15:06:18.069Z,11.73
2022-10-31T15:08:46.589Z,10.98
2022-10-31T15:11:20.081Z,11.98
2022-10-31T15:13:58.593Z,13.15
2022-10-31T15:16:35.869Z,10.32
2022-10-31T15:19:09.285Z,10.02
2022-10-31T15:21:41.638Z,10.13
2022-10-31T15:24:17.181Z,9.35
2022-10-31T15:26:49.434Z,9.10
2022-10-31T15:29:19.914Z,9.95
2022-10-31T15:31:54.073Z,9.02
2022-10-31T15:34:35.861Z,9.13
2022-10-31T15:37:03.408Z,8.90
2022-10-31T15:39:30.993Z,9.30
2022-10-31T15:42:01.038Z,9.80
2022-10-31T15:44:30.328Z,12.98
2022-10-31T15:47:03.624Z,26.13
2022-10-31T15:49:42.337Z,22.60
2022-10-31T15:52:33.767Z,17.97
2022-10-31T15:55:19.232Z,29.73
2022-10-31T15:57:50.169Z,33.57
2022-10-31T16:00:31.866Z,28.73
2022-10-31T16:03:14.110Z,28.00
2022-10-31T16:05:53.290Z,12.90
2022-10-31T16:08:34.483Z,9.87
2022-10-31T16:11:07.695Z,7.00
2022-10-31T16:13:41.867Z,6.60
2022-10-31T16:19:07.235Z,6.67
2022-10-31T16:21:39.995Z,6.93
2022-10-31T16:24:33.221Z,7.80
2022-10-31T16:27:06.720Z,8.40
2022-10-31T16:29:35.681Z,7.63
2022-10-31T16:32:03.691Z,10.13
2022-10-31T16:34:31.322Z,40.50
2022-10-31T16:37:00.147Z,15.27
2022-10-31T16:39:27.386Z,19.20
2022-10-31T16:41:57.938Z,18.87
2022-10-31T16:44:27.947Z,11.73
2022-10-31T16:47:09.536Z,20.80
2022-10-31T16:49:37.424Z,11.53
2022-10-31T16:52:04.802Z,20.63
2022-10-31T16:54:32.199Z,12.73
2022-10-31T16:57:01.335Z,11.43
2022-10-31T16:59:29.264Z,22.23
2022-10-31T17:01:57.157Z,20.27
2022-10-31T17:04:26.425Z,24.17
2022-10-31T17:06:54.089Z,26.93
2022-10-31T17:09:21.583Z,33.33
2022-10-31T17:11:53.249Z,54.00
2022-10-31T17:14:20.894Z,68.50
2022-10-31T17:16:48.456Z,42.70
2022-10-31T17:19:16.166Z,47.13
2022-10-31T17:21:43.677Z,62.53
2022-10-31T17:24:16.153Z,63.47
2022-10-31T17:26:43.790Z,53.37
2022-10-31T17:29:12.178Z,53.03
2022-10-31T17:31:39.664Z,41.77
2022-10-31T17:34:08.929Z,35.10
2022-10-31T17:36:37.011Z,17.20
2022-10-31T17:39:06.113Z,31.47
2022-10-31T17:41:33.555Z,37.10
2022-10-31T17:44:01.093Z,36.10
2022-10-31T17:46:29.903Z,43.57
2022-10-31T17:48:58.187Z,61.23
2022-10-31T17:51:25.912Z,69.03
2022-10-31T17:53:53.802Z,82.07
2022-10-31T17:56:21.481Z,80.47
2022-10-31T17:58:48.866Z,99.13
2022-10-31T18:01:17.891Z,106.17
2022-10-31T18:03:45.822Z,108.43
2022-10-31T18:06:17.037Z,107.37
2022-10-31T18:08:45.050Z,108.50
2022-10-31T18:11:16.424Z,90.63
2022-10-31T18:13:46.013Z,88.23
2022-10-31T18:16:23.929Z,60.77
2022-10-31T18:18:55.024Z,65.77
2022-10-31T18:21:22.746Z,64.60
2022-10-31T18:23:55.273Z,63.77
2022-10-31T18:26:23.809Z,73.33
2022-10-31T18:28:51.174Z,72.13
2022-10-31T18:31:18.661Z,78.40
2022-10-31T18:33:46.437Z,74.70
2022-10-31T18:36:14.938Z,72.67
2022-10-31T18:38:46.636Z,72.20
2022-10-31T18:41:15.759Z,79.30
2022-10-31T18:43:43.946Z,78.17
2022-10-31T18:46:15.218Z,77.47
2022-10-31T18:48:44.472Z,75.20
2022-10-31T18:51:15.044Z,69.63
2022-10-31T18:53:42.694Z,56.53
2022-10-31T18:56:11.971Z,63.23
2022-10-31T18:58:39.458Z,68.17
2022-10-31T19:01:14.395Z,58.93
2022-10-31T19:03:42.639Z,67.83
2022-10-31T19:06:10.438Z,62.17
2022-10-31T19:08:39.166Z,61.03
2022-10-31T19:11:07.559Z,56.33
2022-10-31T19:13:35.901Z,50.43
2022-10-31T19:16:14.762Z,50.20
2022-10-31T19:18:43.701Z,41.53
2022-10-31T19:21:16.202Z,44.10
2022-10-31T19:23:44.590Z,42.40
2022-10-31T19:26:13.190Z,44.47
2022-10-31T19:28:41.879Z,42.20
2022-10-31T19:31:09.914Z,38.37
2022-10-31T19:33:37.833Z,25.30
2022-10-31T19:36:13.856Z,8.50
2022-10-31T19:38:43.654Z,5.97
2022-10-31T19:41:14.410Z,9.33
2022-10-31T19:43:42.848Z,33.50
2022-10-31T19:46:22.272Z,24.57
2022-10-31T19:48:59.984Z,26.83
2022-10-31T19:51:28.018Z,35.07
2022-10-31T19:53:55.728Z,39.37
2022-10-31T19:56:25.314Z,43.97
2022-10-31T19:58:52.789Z,47.67
2022-10-31T20:01:22.721Z,49.40
2022-10-31T20:03:51.047Z,47.57
2022-10-31T20:06:33.558Z,46.87
2022-10-31T20:09:03.860Z,42.30
2022-10-31T20:11:32.094Z,42.07
2022-10-31T20:14:00.525Z,39.70
2022-10-31T20:16:29.175Z,39.57
2022-10-31T20:18:57.277Z,39.93
2022-10-31T20:21:27.157Z,49.83
2022-10-31T20:24:00.125Z,48.53
2022-10-31T20:26:28.793Z,28.37
2022-10-31T20:28:57.438Z,13.07
2022-10-31T20:31:27.455Z,12.83
2022-10-31T20:33:56.117Z,24.03
2022-10-31T20:36:24.149Z,41.13
2022-10-31T20:38:52.912Z,46.50
2022-10-31T20:41:20.375Z,37.60
2022-10-31T20:43:47.896Z,51.17
2022-10-31T20:46:24.055Z,61.63
2022-10-31T20:48:51.818Z,65.77
2022-10-31T20:51:22.243Z,65.80
2022-10-31T20:53:51.258Z,63.83
2022-10-31T20:56:20.944Z,66.87
2022-10-31T20:58:49.258Z,64.83
2022-10-31T21:01:24.094Z,61.87
2022-10-31T21:03:52.483Z,61.17
2022-10-31T21:06:21.627Z,59.20
2022-10-31T21:08:49.715Z,57.13
2022-10-31T21:11:20.438Z,54.43
2022-10-31T21:13:49.029Z,52.13
2022-10-31T21:16:19.730Z,49.70
2022-10-31T21:18:49.490Z,45.23
2022-10-31T21:21:19.995Z,44.70
2022-10-31T21:23:48.166Z,43.70
2022-10-31T21:26:23.981Z,46.07
2022-10-31T21:28:54.265Z,44.90
2022-10-31T21:31:21.956Z,33.67
2022-10-31T21:33:49.422Z,19.30
2022-10-31T21:36:17.442Z,17.77
2022-10-31T21:38:45.393Z,15.07
2022-10-31T21:41:15.268Z,19.33
2022-10-31T21:43:44.703Z,22.23
2022-10-31T21:46:17.629Z,26.97
2022-10-31T21:48:45.859Z,30.03
2022-10-31T21:51:19.407Z,34.03
2022-10-31T21:54:05.549Z,36.80
2022-10-31T21:56:33.545Z,39.90
2022-10-31T21:59:01.438Z,53.17
2022-10-31T22:01:30.383Z,47.90
2022-10-31T22:03:58.970Z,52.33
2022-10-31T22:06:27.615Z,61.27
2022-10-31T22:08:55.321Z,72.10
2022-10-31T22:11:23.313Z,78.20
2022-10-31T22:13:51.208Z,68.40
2022-10-31T22:16:20.738Z,53.83
2022-10-31T22:18:49.062Z,39.60
2022-10-31T22:21:18.516Z,24.57
2022-10-31T22:23:54.185Z,15.80
2022-10-31T22:26:21.805Z,11.60
2022-10-31T22:28:56.191Z,7.33
2022-10-31T22:31:24.878Z,8.83
2022-10-31T22:33:52.736Z,12.67
2022-10-31T22:36:22.268Z,17.37
2022-10-31T22:38:50.080Z,20.37
2022-10-31T22:41:20.692Z,17.83
2022-10-31T22:43:48.917Z,20.73
2022-10-31T22:46:37.673Z,27.20
2022-10-31T22:49:09.263Z,31.17
2022-10-31T22:51:39.017Z,29.90
2022-10-31T22:54:08.517Z,31.90
2022-10-31T22:56:36.270Z,33.53
2022-10-31T22:59:04.088Z,35.97
2022-10-31T23:01:34.964Z,38.07
2022-10-31T23:04:03.198Z,39.17
2022-10-31T23:06:31.742Z,39.73
2022-10-31T23:09:01.428Z,37.87
2022-10-31T23:11:34.349Z,31.07
2022-10-31T23:14:10.689Z,28.30
2022-10-31T23:16:42.631Z,24.97
2022-10-31T23:19:12.241Z,25.40
2022-10-31T23:21:57.538Z,26.43
2022-10-31T23:24:37.093Z,26.37
2022-10-31T23:27:09.549Z,25.80
2022-10-31T23:29:41.323Z,23.97
2022-10-31T23:32:12.374Z,25.10
2022-10-31T23:34:39.934Z,23.90
2022-10-31T23:39:40.381Z,24.60
2022-10-31T23:42:07.875Z,24.20
2022-10-31T23:44:35.926Z,23.80
2022-10-31T23:47:04.598Z,23.93
2022-10-31T23:49:32.080Z,23.63
2022-10-31T23:51:59.754Z,22.57
2022-10-31T23:54:28.415Z,23.23
2022-10-31T23:56:56.573Z,22.50
2022-10-31T23:59:24.722Z,23.37
